Time,TemperatureF,DewpointF,PressureIn,WindDirection,WindDirectionDegrees,WindSpeedMPH,WindSpeedGustMPH,Humidity,HourlyPrecipIn,Conditions,Clouds,dailyrainin,SoftwareType,DateUTC
2013-03-24 00:01:00,51.4,49.5,29.50,SSE,158,0.0,0.0,93,0.00,,CLR,0.00,VWS V14.01,2013-03-24 07:01:00,
2013-03-24 00:06:00,51.4,49.8,29.50,SE,135,0.0,0.0,94,0.00,,CLR,0.00,VWS V14.01,2013-03-24 07:06:00,
2013-03-24 00:12:00,51.3,49.6,29.50,East,90,0.0,0.0,94,0.00,,CLR,0.00,VWS V14.01,2013-03-24 07:12:00,
2013-03-24 00:17:00,51.1,49.4,29.50,ENE,68,0.0,0.0,94,0.00,,CLR,0.00,VWS V14.01,2013-03-24 07:17:00,
2013-03-24 00:22:00,50.9,49.2,29.50,ENE,68,0.0,0.0,94,0.00,,CLR,0.00,VWS V14.01,2013-03-24 07:22:00,
2013-03-24 00:27:00,50.9,49.2,29.50,ENE,68,0.0,0.0,94,0.00,,CLR,0.00,VWS V14.01,2013-03-24 07:27:00,
2013-03-24 00:32:00,50.9,49.2,29.50,ESE,112,0.0,0.0,94,0.00,,CLR,0.00,VWS V14.01,2013-03-24 07:32:00,
2013-03-24 00:37:00,50.7,49.1,29.50,East,90,0.0,0.0,94,0.00,,CLR,0.00,VWS V14.01,2013-03-24 07:37:00,
2013-03-24 00:42:00,50.9,49.2,29.50,SE,135,0.0,0.0,94,0.00,,CLR,0.00,VWS V14.01,2013-03-24 07:42:00,
2013-03-24 00:47:00,50.7,49.3,29.50,SE,135,0.0,0.0,95,0.00,,CLR,0.00,VWS V14.01,2013-03-24 07:47:00,
2013-03-24 00:52:00,50.7,49.3,29.50,SE,135,0.0,0.0,95,0.00,,CLR,0.00,VWS V14.01,2013-03-24 07:52:00,
2013-03-24 00:57:00,50.5,49.2,29.50,SE,135,0.0,0.0,95,0.00,,CLR,0.00,VWS V14.01,2013-03-24 07:57:00,
2013-03-24 01:02:00,50.2,48.8,29.47,SE,135,0.0,0.0,95,0.00,,CLR,0.00,VWS V14.01,2013-03-24 08:02:00,
2013-03-24 01:07:00,50.2,48.8,29.47,ENE,68,0.0,0.0,95,0.00,,CLR,0.00,VWS V14.01,2013-03-24 08:07:00,
2013-03-24 01:12:00,50.2,49.1,29.47,ENE,68,0.0,0.0,96,0.00,,CLR,0.00,VWS V14.01,2013-03-24 08:12:00,
2013-03-24 01:17:00,50.4,49.3,29.50,ENE,68,0.0,0.0,96,0.00,,CLR,0.00,VWS V14.01,2013-03-24 08:17:00,
2013-03-24 01:22:00,50.2,49.1,29.50,ENE,68,0.0,0.0,96,0.00,,CLR,0.00,VWS V14.01,2013-03-24 08:22:00,
2013-03-24 01:27:00,50.2,49.1,29.50,East,90,0.0,0.0,96,0.00,,CLR,0.00,VWS V14.01,2013-03-24 08:27:00,
2013-03-24 01:32:00,50.2,49.1,29.50,East,90,0.0,0.0,96,0.00,,CLR,0.00,VWS V14.01,2013-03-24 08:32:00,
2013-03-24 01:37:00,50.2,49.1,29.50,East,90,0.0,0.0,96,0.00,,CLR,0.00,VWS V14.01,2013-03-24 08:37:00,
2013-03-24 01:42:00,50.4,49.3,29.50,ESE,112,0.0,0.0,96,0.00,,CLR,0.00,VWS V14.01,2013-03-24 08:42:00,
2013-03-24 01:47:00,50.4,49.3,29.50,East,90,0.0,0.0,96,0.00,,CLR,0.00,VWS V14.01,2013-03-24 08:47:00,
2013-03-24 01:52:00,50.4,49.3,29.50,East,90,0.0,0.0,96,0.00,,CLR,0.00,VWS V14.01,2013-03-24 08:52:00,
2013-03-24 01:57:00,50.4,49.3,29.50,East,90,0.0,0.0,96,0.00,,CLR,0.00,VWS V14.01,2013-03-24 08:57:00,
2013-03-24 02:02:00,50.4,49.3,29.50,East,90,0.9,0.9,96,0.00,,BKN010,0.00,VWS V14.01,2013-03-24 09:02:00,
2013-03-24 02:07:00,50.5,49.7,29.50,ESE,112,0.9,0.9,97,0.00,,BKN010,0.00,VWS V14.01,2013-03-24 09:07:00,
2013-03-24 02:12:00,50.4,49.5,29.50,ESE,112,0.0,0.0,97,0.00,,BKN010,0.00,VWS V14.01,2013-03-24 09:12:00,
2013-03-24 02:17:00,50.2,49.4,29.50,East,90,0.0,0.0,97,0.00,,BKN010,0.00,VWS V14.01,2013-03-24 09:17:00,
2013-03-24 02:22:00,50.2,49.4,29.50,East,90,0.0,0.0,97,0.00,,BKN010,0.00,VWS V14.01,2013-03-24 09:22:00,
2013-03-24 02:27:00,50.2,49.4,29.50,NE,45,0.0,0.0,97,0.00,,BKN010,0.00,VWS V14.01,2013-03-24 09:27:00,
2013-03-24 02:32:00,50.4,49.5,29.50,SE,135,0.0,0.0,97,0.00,,BKN010,0.00,VWS V14.01,2013-03-24 09:32:00,
2013-03-24 02:37:00,50.7,49.9,29.50,SE,135,0.0,0.0,97,0.00,,BKN010,0.00,VWS V14.01,2013-03-24 09:37:00,
2013-03-24 02:42:00,50.9,50.4,29.50,SE,135,0.0,0.0,98,0.00,,BKN010,0.00,VWS V14.01,2013-03-24 09:42:00,
2013-03-24 02:47:00,51.1,50.5,29.50,SE,135,0.0,0.0,98,0.00,,BKN010,0.00,VWS V14.01,2013-03-24 09:47:00,
2013-03-24 02:53:00,51.6,51.1,29.50,SSE,158,0.0,0.0,98,0.00,,BKN010,0.00,VWS V14.01,2013-03-24 09:53:00,
2013-03-24 02:58:00,52.0,51.4,29.50,SW,225,0.0,0.0,98,0.00,,BKN010,0.00,VWS V14.01,2013-03-24 09:58:00,
2013-03-24 03:03:00,52.2,51.6,29.50,SSW,202,0.0,0.0,98,0.00,,FEW010,0.00,VWS V14.01,2013-03-24 10:03:00,
2013-03-24 03:08:00,52.3,51.8,29.50,SSW,202,0.0,0.0,98,0.00,,FEW010,0.00,VWS V14.01,2013-03-24 10:08:00,
2013-03-24 03:13:00,52.3,51.8,29.50,SSW,202,0.0,0.0,98,0.00,,FEW010,0.00,VWS V14.01,2013-03-24 10:13:00,
2013-03-24 03:18:00,52.7,52.2,29.47,SSW,202,0.0,0.0,98,0.00,,FEW010,0.00,VWS V14.01,2013-03-24 10:18:00,
2013-03-24 03:23:00,52.7,52.2,29.47,West,270,0.0,0.0,98,0.00,,FEW010,0.00,VWS V14.01,2013-03-24 10:23:00,
2013-03-24 03:28:00,52.9,52.3,29.47,WSW,248,0.0,0.0,98,0.00,,FEW010,0.00,VWS V14.01,2013-03-24 10:28:00,
2013-03-24 03:33:00,53.1,52.5,29.50,WSW,248,0.0,0.0,98,0.00,,FEW010,0.00,VWS V14.01,2013-03-24 10:33:00,
2013-03-24 03:38:00,53.1,52.5,29.50,WSW,248,0.0,0.0,98,0.00,,FEW010,0.00,VWS V14.01,2013-03-24 10:38:00,
2013-03-24 03:43:00,53.1,52.5,29.50,SW,225,0.0,0.0,98,0.00,,FEW010,0.00,VWS V14.01,2013-03-24 10:43:00,
2013-03-24 03:48:00,53.2,52.7,29.47,WSW,248,0.0,0.0,98,0.00,,FEW010,0.00,VWS V14.01,2013-03-24 10:48:00,
2013-03-24 03:53:00,53.2,52.7,29.47,WSW,248,0.0,0.0,98,0.00,,FEW010,0.00,VWS V14.01,2013-03-24 10:53:00,
2013-03-24 03:58:00,53.2,52.7,29.47,SE,135,0.0,0.0,98,0.00,,FEW010,0.00,VWS V14.01,2013-03-24 10:58:00,
2013-03-24 04:03:00,53.2,52.7,29.47,WSW,248,0.0,0.0,98,0.00,,BKN017,0.00,VWS V14.01,2013-03-24 11:03:00,
2013-03-24 04:08:00,53.2,52.7,29.47,SW,225,0.0,0.0,98,0.00,,BKN017,0.00,VWS V14.01,2013-03-24 11:08:00,
2013-03-24 04:13:00,53.2,52.7,29.47,SE,135,0.0,0.0,98,0.00,,BKN017,0.00,VWS V14.01,2013-03-24 11:13:00,
2013-03-24 04:18:00,53.2,52.7,29.50,SSW,202,0.0,0.0,98,0.00,,BKN017,0.00,VWS V14.01,2013-03-24 11:18:00,
2013-03-24 04:23:00,53.4,52.9,29.50,SW,225,0.0,0.0,98,0.00,,BKN017,0.00,VWS V14.01,2013-03-24 11:23:00,
2013-03-24 04:28:00,53.2,52.7,29.50,South,180,0.0,0.0,98,0.00,,BKN017,0.00,VWS V14.01,2013-03-24 11:28:00,
2013-03-24 04:33:00,53.2,52.7,29.47,SE,135,0.9,0.9,98,0.00,,BKN017,0.00,VWS V14.01,2013-03-24 11:33:00,
2013-03-24 04:38:00,53.2,52.7,29.47,ESE,112,0.0,0.0,98,0.00,,BKN017,0.00,VWS V14.01,2013-03-24 11:38:00,
2013-03-24 04:43:00,53.2,52.7,29.47,ESE,112,0.0,0.0,98,0.00,,BKN017,0.00,VWS V14.01,2013-03-24 11:43:00,
2013-03-24 04:48:00,53.2,52.7,29.47,South,180,0.0,0.0,98,0.00,,OVC008,0.00,VWS V14.01,2013-03-24 11:48:00,
2013-03-24 04:53:00,53.2,52.7,29.47,SW,225,0.0,0.0,98,0.00,,OVC008,0.00,VWS V14.01,2013-03-24 11:53:00,
2013-03-24 04:58:00,53.2,52.7,29.47,SW,225,0.0,0.0,98,0.00,,OVC008,0.00,VWS V14.01,2013-03-24 11:58:00,
2013-03-24 05:03:00,53.4,52.9,29.50,South,180,0.0,0.0,98,0.00,,OVC008,0.00,VWS V14.01,2013-03-24 12:03:00,
2013-03-24 05:08:00,53.4,52.9,29.50,South,180,0.0,0.0,98,0.00,,OVC008,0.00,VWS V14.01,2013-03-24 12:08:00,
2013-03-24 05:13:00,53.4,52.9,29.50,South,180,0.0,0.0,98,0.00,,OVC008,0.00,VWS V14.01,2013-03-24 12:13:00,
2013-03-24 05:18:00,53.4,52.9,29.50,SE,135,0.0,0.0,98,0.00,,OVC008,0.00,VWS V14.01,2013-03-24 12:18:00,
2013-03-24 05:23:00,53.2,52.7,29.50,South,180,0.0,0.0,98,0.00,,OVC008,0.00,VWS V14.01,2013-03-24 12:23:00,
2013-03-24 05:28:00,53.2,52.7,29.50,West,270,0.0,0.0,98,0.00,,OVC008,0.00,VWS V14.01,2013-03-24 12:28:00,
2013-03-24 05:33:00,53.2,52.7,29.50,North,0,0.0,0.0,98,0.00,,OVC008,0.00,VWS V14.01,2013-03-24 12:33:00,
2013-03-24 05:38:00,53.2,52.7,29.50,WNW,292,0.0,0.0,98,0.00,,OVC008,0.00,VWS V14.01,2013-03-24 12:38:00,
2013-03-24 05:43:00,53.2,52.7,29.50,NW,315,0.0,0.0,98,0.00,,OVC008,0.00,VWS V14.01,2013-03-24 12:43:00,
2013-03-24 05:48:00,53.2,52.7,29.50,NW,315,0.0,0.0,98,0.00,,OVC008,0.00,VWS V14.01,2013-03-24 12:48:00,
2013-03-24 05:53:00,53.1,52.5,29.50,WSW,248,0.0,0.0,98,0.00,,OVC008,0.00,VWS V14.01,2013-03-24 12:53:00,
2013-03-24 05:58:00,53.1,52.5,29.50,WSW,248,0.0,0.0,98,0.00,,OVC008,0.00,VWS V14.01,2013-03-24 12:58:00,
2013-03-24 06:03:00,53.1,52.5,29.50,SW,225,0.0,0.0,98,0.00,,,0.00,VWS V14.01,2013-03-24 13:03:00,
2013-03-24 06:08:00,53.1,52.5,29.50,South,180,1.6,1.6,98,0.00,,,0.00,VWS V14.01,2013-03-24 13:08:00,
2013-03-24 06:13:00,53.1,52.5,29.50,NNW,338,0.0,0.0,98,0.00,,,0.00,VWS V14.01,2013-03-24 13:13:00,
2013-03-24 06:18:00,53.2,52.7,29.50,North,0,0.0,0.0,98,0.00,,,0.00,VWS V14.01,2013-03-24 13:18:00,
2013-03-24 06:23:00,53.1,52.5,29.50,WNW,292,0.0,0.0,98,0.00,,,0.00,VWS V14.01,2013-03-24 13:23:00,
2013-03-24 06:28:00,53.1,52.5,29.50,NNW,338,0.0,0.0,98,0.00,,,0.00,VWS V14.01,2013-03-24 13:28:00,
2013-03-24 06:33:00,53.1,52.5,29.50,West,270,0.0,0.0,98,0.00,,OVC010,0.00,VWS V14.01,2013-03-24 13:33:00,
2013-03-24 06:38:00,53.2,52.7,29.50,WSW,248,0.0,0.0,98,0.00,,OVC010,0.00,VWS V14.01,2013-03-24 13:38:00,
2013-03-24 06:43:00,53.1,52.5,29.50,WSW,248,0.0,0.0,98,0.00,,OVC010,0.00,VWS V14.01,2013-03-24 13:43:00,
2013-03-24 06:48:00,53.1,52.5,29.50,NNW,338,1.6,1.6,98,0.00,,OVC010,0.00,VWS V14.01,2013-03-24 13:48:00,
2013-03-24 06:53:00,53.1,52.5,29.50,North,0,0.0,0.0,98,0.00,,OVC010,0.00,VWS V14.01,2013-03-24 13:53:00,
2013-03-24 06:58:00,53.1,52.5,29.50,NE,45,0.0,0.0,98,0.00,,OVC010,0.00,VWS V14.01,2013-03-24 13:58:00,
2013-03-24 07:03:00,52.9,52.3,29.50,NNW,338,0.0,0.0,98,0.00,,OVC010,0.00,VWS V14.01,2013-03-24 14:03:00,
2013-03-24 07:08:00,52.9,52.3,29.50,NW,315,0.0,0.0,98,0.00,,OVC010,0.00,VWS V14.01,2013-03-24 14:08:00,
2013-03-24 07:13:00,52.9,52.3,29.50,WNW,292,0.0,0.0,98,0.00,,OVC010,0.00,VWS V14.01,2013-03-24 14:13:00,
2013-03-24 07:18:00,52.9,52.3,29.50,WNW,292,0.0,0.0,98,0.00,,OVC010,0.00,VWS V14.01,2013-03-24 14:18:00,
2013-03-24 07:24:00,53.1,52.5,29.50,NNE,22,0.0,0.0,98,0.00,,OVC010,0.00,VWS V14.01,2013-03-24 14:24:00,
2013-03-24 07:29:00,53.1,52.5,29.50,North,0,1.1,1.1,98,0.00,,OVC010,0.00,VWS V14.01,2013-03-24 14:29:00,
2013-03-24 07:34:00,53.1,52.5,29.50,WNW,292,0.0,0.0,98,0.00,,OVC010,0.00,VWS V14.01,2013-03-24 14:34:00,
2013-03-24 07:39:00,53.1,52.5,29.50,NNE,22,1.3,1.3,98,0.00,,OVC010,0.00,VWS V14.01,2013-03-24 14:39:00,
2013-03-24 07:44:00,53.2,52.7,29.50,NNE,22,0.9,0.9,98,0.00,,OVC010,0.00,VWS V14.01,2013-03-24 14:44:00,
2013-03-24 07:49:00,53.2,52.7,29.50,North,0,0.0,0.0,98,0.00,,OVC010,0.00,VWS V14.01,2013-03-24 14:49:00,
2013-03-24 07:54:00,53.4,52.9,29.50,NE,45,0.0,0.0,98,0.00,,OVC010,0.00,VWS V14.01,2013-03-24 14:54:00,
2013-03-24 07:59:00,53.6,53.0,29.50,WSW,248,0.0,0.0,98,0.00,,OVC010,0.00,VWS V14.01,2013-03-24 14:59:00,
2013-03-24 08:04:00,53.8,53.2,29.50,NNW,338,0.0,0.0,98,0.00,,,0.00,VWS V14.01,2013-03-24 15:04:00,
2013-03-24 08:09:00,54.1,53.6,29.50,West,270,1.1,1.1,98,0.00,,,0.00,VWS V14.01,2013-03-24 15:09:00,
2013-03-24 08:14:00,54.1,53.6,29.50,NW,315,0.0,0.0,98,0.00,,,0.00,VWS V14.01,2013-03-24 15:14:00,
2013-03-24 08:19:00,54.3,53.8,29.47,West,270,0.0,0.0,98,0.00,,,0.00,VWS V14.01,2013-03-24 15:19:00,
2013-03-24 08:24:00,54.5,54.0,29.47,NNW,338,0.0,0.0,98,0.00,,,0.00,VWS V14.01,2013-03-24 15:24:00,
2013-03-24 08:29:00,54.7,54.1,29.47,NE,45,0.0,0.0,98,0.00,,,0.00,VWS V14.01,2013-03-24 15:29:00,
2013-03-24 08:34:00,54.9,54.0,29.50,NW,315,0.0,0.0,97,0.00,,,0.00,VWS V14.01,2013-03-24 15:34:00,
2013-03-24 08:39:00,54.9,54.0,29.50,West,270,0.9,0.9,97,0.00,,,0.00,VWS V14.01,2013-03-24 15:39:00,
2013-03-24 08:44:00,55.0,53.9,29.50,NW,315,0.0,0.0,96,0.00,,,0.00,VWS V14.01,2013-03-24 15:44:00,
2013-03-24 08:49:00,55.8,54.6,29.47,NW,315,0.0,0.0,96,0.00,,,0.00,VWS V14.01,2013-03-24 15:49:00,
2013-03-24 08:54:00,56.1,55.0,29.47,West,270,0.0,0.0,96,0.00,,,0.00,VWS V14.01,2013-03-24 15:54:00,
2013-03-24 08:59:00,56.7,55.2,29.50,WSW,248,0.0,0.0,95,0.00,,,0.00,VWS V14.01,2013-03-24 15:59:00,
2013-03-24 09:04:00,56.8,54.8,29.50,NW,315,0.0,0.0,93,0.00,,,0.00,VWS V14.01,2013-03-24 16:04:00,
2013-03-24 09:09:00,57.4,55.1,29.50,WSW,248,1.1,1.1,92,0.00,,,0.00,VWS V14.01,2013-03-24 16:09:00,
2013-03-24 09:14:00,57.9,55.3,29.50,North,0,2.5,2.5,91,0.00,,,0.00,VWS V14.01,2013-03-24 16:14:00,
2013-03-24 09:19:00,58.5,55.2,29.50,WNW,292,0.0,0.0,89,0.00,,,0.00,VWS V14.01,2013-03-24 16:19:00,
2013-03-24 09:24:00,59.7,56.2,29.50,NE,45,1.3,1.3,88,0.00,,,0.00,VWS V14.01,2013-03-24 16:24:00,
2013-03-24 09:29:00,59.9,54.7,29.50,West,270,0.9,0.9,83,0.00,,,0.00,VWS V14.01,2013-03-24 16:29:00,
2013-03-24 09:34:00,60.4,54.6,29.50,West,270,2.2,2.2,81,0.00,,,0.00,VWS V14.01,2013-03-24 16:34:00,
2013-03-24 09:39:00,61.7,54.4,29.50,SSW,202,0.9,0.9,77,0.00,,,0.00,VWS V14.01,2013-03-24 16:39:00,
2013-03-24 09:44:00,62.8,55.8,29.50,SW,225,2.7,2.7,78,0.00,,,0.00,VWS V14.01,2013-03-24 16:44:00,
2013-03-24 09:49:00,63.3,53.4,29.50,West,270,2.5,2.5,70,0.00,,,0.00,VWS V14.01,2013-03-24 16:49:00,
2013-03-24 09:54:00,64.2,54.2,29.50,NNE,22,0.0,0.0,70,0.00,,,0.00,VWS V14.01,2013-03-24 16:54:00,
2013-03-24 09:59:00,64.6,53.8,29.50,WSW,248,2.2,2.2,68,0.00,,,0.00,VWS V14.01,2013-03-24 16:59:00,
2013-03-24 10:04:00,65.7,54.8,29.50,WNW,292,1.6,1.6,68,0.00,,,0.00,VWS V14.01,2013-03-24 17:04:00,
2013-03-24 10:09:00,66.9,55.6,29.50,NNE,22,2.0,2.0,67,0.00,,,0.00,VWS V14.01,2013-03-24 17:09:00,
2013-03-24 10:14:00,67.1,54.5,29.50,NNE,22,0.9,0.9,64,0.00,,,0.00,VWS V14.01,2013-03-24 17:14:00,
2013-03-24 10:19:00,67.5,53.6,29.50,WNW,292,2.7,2.7,61,0.00,,,0.00,VWS V14.01,2013-03-24 17:19:00,
2013-03-24 10:24:00,68.2,53.8,29.50,NW,315,1.6,1.6,60,0.00,,,0.00,VWS V14.01,2013-03-24 17:24:00,
2013-03-24 10:29:00,68.4,53.0,29.50,South,180,2.0,2.0,58,0.00,,,0.00,VWS V14.01,2013-03-24 17:29:00,
2013-03-24 10:34:00,68.5,52.7,29.50,WNW,292,2.5,2.5,57,0.00,,,0.00,VWS V14.01,2013-03-24 17:34:00,
2013-03-24 10:39:00,69.8,52.9,29.50,North,0,2.5,2.5,55,0.00,,,0.00,VWS V14.01,2013-03-24 17:39:00,
2013-03-24 10:44:00,70.3,53.4,29.50,West,270,0.0,0.0,55,0.00,,,0.00,VWS V14.01,2013-03-24 17:44:00,
2013-03-24 10:50:00,70.9,53.4,29.50,WNW,292,2.9,2.9,54,0.00,,,0.00,VWS V14.01,2013-03-24 17:50:00,
2013-03-24 10:55:00,71.6,53.1,29.50,South,180,0.0,0.0,52,0.00,,,0.00,VWS V14.01,2013-03-24 17:55:00,
2013-03-24 11:00:00,72.3,52.7,29.50,NW,315,0.0,0.0,50,0.00,,,0.00,VWS V14.01,2013-03-24 18:00:00,
2013-03-24 11:05:00,73.0,53.9,29.50,West,270,1.1,1.1,51,0.00,,,0.00,VWS V14.01,2013-03-24 18:05:00,
2013-03-24 11:10:00,73.6,52.7,29.50,NE,45,1.1,1.1,48,0.00,,,0.00,VWS V14.01,2013-03-24 18:10:00,
2013-03-24 11:15:00,74.1,53.2,29.50,West,270,0.0,0.0,48,0.00,,,0.00,VWS V14.01,2013-03-24 18:15:00,
2013-03-24 11:20:00,74.5,52.4,29.50,West,270,1.6,1.6,46,0.00,,,0.00,VWS V14.01,2013-03-24 18:20:00,
2013-03-24 11:25:00,75.9,54.3,29.50,NW,315,2.5,2.5,47,0.00,,,0.00,VWS V14.01,2013-03-24 18:25:00,
2013-03-24 11:30:00,76.3,53.4,29.50,WSW,248,0.0,0.0,45,0.00,,,0.00,VWS V14.01,2013-03-24 18:30:00,
2013-03-24 11:35:00,76.6,52.5,29.50,NNW,338,1.3,1.3,43,0.00,,,0.00,VWS V14.01,2013-03-24 18:35:00,
2013-03-24 11:40:00,76.8,53.3,29.50,NE,45,1.1,1.1,44,0.00,,,0.00,VWS V14.01,2013-03-24 18:40:00,
2013-03-24 11:45:00,77.5,52.7,29.50,NNE,22,1.6,1.6,42,0.00,,,0.00,VWS V14.01,2013-03-24 18:45:00,
2013-03-24 11:50:00,77.9,53.0,29.50,South,180,0.9,0.9,42,0.00,,,0.00,VWS V14.01,2013-03-24 18:50:00,
2013-03-24 11:55:00,79.2,53.5,29.50,NNW,338,2.0,2.0,41,0.00,,,0.00,VWS V14.01,2013-03-24 18:55:00,
2013-03-24 12:00:00,79.7,53.3,29.47,NW,315,1.3,1.3,40,0.00,,CLR,0.00,VWS V14.01,2013-03-24 19:00:00,
2013-03-24 12:05:00,79.3,51.5,29.47,NE,45,0.0,0.0,38,0.00,,CLR,0.00,VWS V14.01,2013-03-24 19:05:00,
2013-03-24 12:10:00,80.2,53.1,29.47,SSW,202,0.0,0.0,39,0.00,,CLR,0.00,VWS V14.01,2013-03-24 19:10:00,
2013-03-24 12:15:00,80.1,51.5,29.47,ESE,112,2.0,2.0,37,0.00,,CLR,0.00,VWS V14.01,2013-03-24 19:15:00,
2013-03-24 12:20:00,80.8,52.1,29.47,NNW,338,1.6,1.6,37,0.00,,CLR,0.00,VWS V14.01,2013-03-24 19:20:00,
2013-03-24 12:25:00,80.6,50.5,29.47,NNE,22,1.3,1.3,35,0.00,,CLR,0.00,VWS V14.01,2013-03-24 19:25:00,
2013-03-24 12:30:00,81.3,51.1,29.47,WSW,248,0.0,0.0,35,0.00,,CLR,0.00,VWS V14.01,2013-03-24 19:30:00,
2013-03-24 12:35:00,82.4,52.0,29.47,WSW,248,2.0,2.0,35,0.00,,CLR,0.00,VWS V14.01,2013-03-24 19:35:00,
2013-03-24 12:40:00,82.8,51.6,29.47,South,180,2.5,2.5,34,0.00,,CLR,0.00,VWS V14.01,2013-03-24 19:40:00,
2013-03-24 12:45:00,82.4,52.8,29.47,WSW,248,1.1,1.1,36,0.00,,CLR,0.00,VWS V14.01,2013-03-24 19:45:00,
2013-03-24 12:50:00,81.5,52.0,29.47,WNW,292,2.5,2.5,36,0.00,,CLR,0.00,VWS V14.01,2013-03-24 19:50:00,
2013-03-24 12:55:00,81.7,52.2,29.47,SE,135,0.0,0.0,36,0.00,,CLR,0.00,VWS V14.01,2013-03-24 19:55:00,
2013-03-24 13:00:00,82.0,50.9,29.47,SW,225,0.0,0.0,34,0.00,,CLR,0.00,VWS V14.01,2013-03-24 20:00:00,
2013-03-24 13:05:00,82.6,51.4,29.47,SSW,202,0.9,0.9,34,0.00,,CLR,0.00,VWS V14.01,2013-03-24 20:05:00,
2013-03-24 13:10:00,82.9,52.5,29.47,SW,225,0.0,0.0,35,0.00,,CLR,0.00,VWS V14.01,2013-03-24 20:10:00,
2013-03-24 13:15:00,82.6,49.8,29.47,SSE,158,0.0,0.0,32,0.00,,CLR,0.00,VWS V14.01,2013-03-24 20:15:00,
2013-03-24 13:20:00,82.0,49.3,29.47,West,270,0.0,0.0,32,0.00,,CLR,0.00,VWS V14.01,2013-03-24 20:20:00,
2013-03-24 13:25:00,82.8,49.9,29.47,SSW,202,1.6,1.6,32,0.00,,CLR,0.00,VWS V14.01,2013-03-24 20:25:00,
2013-03-24 13:30:00,82.0,48.5,29.41,NNW,338,2.5,2.5,31,0.00,,CLR,0.00,VWS V14.01,2013-03-24 20:30:00,
2013-03-24 13:35:00,81.1,48.5,29.41,West,270,2.7,2.7,32,0.00,,CLR,0.00,VWS V14.01,2013-03-24 20:35:00,
2013-03-24 13:40:00,81.0,48.4,29.41,West,270,3.4,3.4,32,0.00,,CLR,0.00,VWS V14.01,2013-03-24 20:40:00,
2013-03-24 13:45:00,80.2,47.7,29.44,SW,225,3.1,3.1,32,0.00,,CLR,0.00,VWS V14.01,2013-03-24 20:45:00,
2013-03-24 13:50:00,80.4,47.9,29.44,WNW,292,2.9,2.9,32,0.00,,CLR,0.00,VWS V14.01,2013-03-24 20:50:00,
2013-03-24 13:55:00,80.8,47.4,29.44,SSW,202,3.8,3.8,31,0.00,,CLR,0.00,VWS V14.01,2013-03-24 20:55:00,
2013-03-24 14:00:00,81.3,47.8,29.47,SSW,202,3.4,3.4,31,0.00,,FEW250,0.00,VWS V14.01,2013-03-24 21:00:00,
2013-03-24 14:05:00,81.7,48.1,29.47,West,270,2.9,2.9,31,0.00,,FEW250,0.00,VWS V14.01,2013-03-24 21:05:00,
2013-03-24 14:10:00,81.3,47.0,29.47,West,270,3.1,3.1,30,0.00,,FEW250,0.00,VWS V14.01,2013-03-24 21:10:00,
2013-03-24 14:15:00,81.5,47.1,29.44,West,270,3.4,3.4,30,0.00,,FEW250,0.00,VWS V14.01,2013-03-24 21:15:00,
2013-03-24 14:20:00,81.3,47.0,29.44,SSW,202,2.2,2.2,30,0.00,,FEW250,0.00,VWS V14.01,2013-03-24 21:20:00,
2013-03-24 14:25:00,82.2,47.7,29.44,SW,225,1.6,1.6,30,0.00,,FEW250,0.00,VWS V14.01,2013-03-24 21:25:00,
2013-03-24 14:30:00,80.8,46.5,29.44,SSW,202,2.2,2.2,30,0.00,,FEW250,0.00,VWS V14.01,2013-03-24 21:30:00,
2013-03-24 14:35:00,80.4,46.2,29.44,SW,225,4.9,4.9,30,0.00,,FEW250,0.00,VWS V14.01,2013-03-24 21:35:00,
2013-03-24 14:40:00,80.1,45.9,29.44,South,180,3.8,3.8,30,0.00,,FEW250,0.00,VWS V14.01,2013-03-24 21:40:00,
2013-03-24 14:45:00,79.9,45.7,29.44,SSW,202,3.6,3.6,30,0.00,,FEW250,0.00,VWS V14.01,2013-03-24 21:45:00,
2013-03-24 14:50:00,80.2,46.0,29.44,SSW,202,3.4,3.4,30,0.00,,FEW250,0.00,VWS V14.01,2013-03-24 21:50:00,
2013-03-24 14:56:00,80.6,46.3,29.44,West,270,1.1,1.1,30,0.00,,FEW250,0.00,VWS V14.01,2013-03-24 21:56:00,
2013-03-24 15:01:00,80.4,46.2,29.41,SSW,202,2.5,2.5,30,0.00,,FEW250,0.00,VWS V14.01,2013-03-24 22:01:00,
2013-03-24 15:06:00,80.4,46.2,29.41,South,180,2.0,2.0,30,0.00,,FEW250,0.00,VWS V14.01,2013-03-24 22:06:00,
2013-03-24 15:11:00,80.1,45.9,29.41,ESE,112,3.8,3.8,30,0.00,,FEW250,0.00,VWS V14.01,2013-03-24 22:11:00,
2013-03-24 15:16:00,80.6,45.4,29.41,WSW,248,2.5,2.5,29,0.00,,FEW250,0.00,VWS V14.01,2013-03-24 22:16:00,
2013-03-24 15:21:00,81.0,45.8,29.41,South,180,2.7,2.7,29,0.00,,FEW250,0.00,VWS V14.01,2013-03-24 22:21:00,
2013-03-24 15:27:00,81.0,45.8,29.41,WSW,248,2.9,2.9,29,0.00,,FEW250,0.00,VWS V14.01,2013-03-24 22:27:00,
2013-03-24 15:32:00,80.2,45.1,29.41,SSW,202,1.1,1.1,29,0.00,,FEW250,0.00,VWS V14.01,2013-03-24 22:32:00,
2013-03-24 15:37:00,79.9,45.7,29.41,SSW,202,0.9,0.9,30,0.00,,FEW250,0.00,VWS V14.01,2013-03-24 22:37:00,
2013-03-24 15:42:00,80.8,45.6,29.41,WNW,292,2.7,2.7,29,0.00,,FEW250,0.00,VWS V14.01,2013-03-24 22:42:00,
2013-03-24 15:47:00,80.1,44.0,29.41,WSW,248,2.5,2.5,28,0.00,,FEW250,0.00,VWS V14.01,2013-03-24 22:47:00,
2013-03-24 15:52:00,79.3,45.2,29.41,SSW,202,1.6,1.6,30,0.00,,FEW250,0.00,VWS V14.01,2013-03-24 22:52:00,
2013-03-24 15:57:00,80.2,46.0,29.41,WSW,248,2.5,2.5,30,0.00,,FEW250,0.00,VWS V14.01,2013-03-24 22:57:00,
2013-03-24 16:02:00,80.8,46.5,29.41,WSW,248,2.9,2.9,30,0.00,,SCT250,0.00,VWS V14.01,2013-03-24 23:02:00,
2013-03-24 16:07:00,80.1,45.9,29.41,West,270,2.2,2.2,30,0.00,,SCT250,0.00,VWS V14.01,2013-03-24 23:07:00,
2013-03-24 16:12:00,79.3,46.1,29.41,SW,225,0.0,0.0,31,0.00,,SCT250,0.00,VWS V14.01,2013-03-24 23:12:00,
2013-03-24 16:17:00,78.4,45.3,29.38,SSE,158,2.9,2.9,31,0.00,,SCT250,0.00,VWS V14.01,2013-03-24 23:17:00,
2013-03-24 16:22:00,77.9,44.9,29.38,SSW,202,2.5,2.5,31,0.00,,SCT250,0.00,VWS V14.01,2013-03-24 23:22:00,
2013-03-24 16:27:00,77.7,44.7,29.38,WSW,248,2.0,2.0,31,0.00,,SCT250,0.00,VWS V14.01,2013-03-24 23:27:00,
2013-03-24 16:32:00,77.9,45.7,29.38,NW,315,2.7,2.7,32,0.00,,SCT250,0.00,VWS V14.01,2013-03-24 23:32:00,
2013-03-24 16:37:00,78.3,46.0,29.38,WNW,292,2.9,2.9,32,0.00,,SCT250,0.00,VWS V14.01,2013-03-24 23:37:00,
2013-03-24 16:42:00,78.4,46.2,29.38,SSW,202,0.0,0.0,32,0.00,,SCT250,0.00,VWS V14.01,2013-03-24 23:42:00,
2013-03-24 16:47:00,78.3,46.0,29.38,South,180,2.7,2.7,32,0.00,,SCT250,0.00,VWS V14.01,2013-03-24 23:47:00,
2013-03-24 16:52:00,77.9,45.7,29.38,WSW,248,2.0,2.0,32,0.00,,SCT250,0.00,VWS V14.01,2013-03-24 23:52:00,
2013-03-24 16:57:00,77.9,45.7,29.38,WSW,248,2.2,2.2,32,0.00,,SCT250,0.00,VWS V14.01,2013-03-24 23:57:00,
2013-03-24 17:02:00,77.5,45.4,29.38,NW,315,3.6,3.6,32,0.00,,SCT250,0.00,VWS V14.01,2013-03-25 00:02:00,
2013-03-24 17:07:00,77.2,45.1,29.38,WNW,292,1.6,1.6,32,0.00,,SCT250,0.00,VWS V14.01,2013-03-25 00:07:00,
2013-03-24 17:12:00,77.0,45.7,29.38,West,270,2.0,2.0,33,0.00,,SCT250,0.00,VWS V14.01,2013-03-25 00:12:00,
2013-03-24 17:17:00,77.0,45.7,29.35,WNW,292,0.0,0.0,33,0.00,,SCT250,0.00,VWS V14.01,2013-03-25 00:17:00,
2013-03-24 17:22:00,76.6,46.2,29.35,WSW,248,1.1,1.1,34,0.00,,SCT250,0.00,VWS V14.01,2013-03-25 00:22:00,
2013-03-24 17:27:00,76.3,45.9,29.35,SW,225,0.0,0.0,34,0.00,,SCT250,0.00,VWS V14.01,2013-03-25 00:27:00,
2013-03-24 17:32:00,75.4,45.1,29.38,West,270,0.0,0.0,34,0.00,,SCT250,0.00,VWS V14.01,2013-03-25 00:32:00,
2013-03-24 17:38:00,74.1,45.5,29.38,WSW,248,0.0,0.0,36,0.00,,SCT250,0.00,VWS V14.01,2013-03-25 00:38:00,
2013-03-24 17:43:00,73.4,46.3,29.38,West,270,2.2,2.2,38,0.00,,SCT250,0.00,VWS V14.01,2013-03-25 00:43:00,
2013-03-24 17:48:00,72.7,47.7,29.35,SSW,202,1.3,1.3,41,0.00,,SCT250,0.00,VWS V14.01,2013-03-25 00:48:00,
2013-03-24 17:53:00,72.0,47.6,29.35,WSW,248,3.1,3.1,42,0.00,,SCT250,0.00,VWS V14.01,2013-03-25 00:53:00,
2013-03-24 17:58:00,71.2,47.6,29.35,WSW,248,0.0,0.0,43,0.00,,SCT250,0.00,VWS V14.01,2013-03-25 00:58:00,
2013-03-24 18:03:00,70.5,47.0,29.38,WSW,248,0.0,0.0,43,0.00,,FEW250,0.00,VWS V14.01,2013-03-25 01:03:00,
2013-03-24 18:08:00,70.0,46.5,29.38,SW,225,0.9,0.9,43,0.00,,FEW250,0.00,VWS V14.01,2013-03-25 01:08:00,
2013-03-24 18:13:00,69.3,47.0,29.38,WSW,248,0.0,0.0,45,0.00,,FEW250,0.00,VWS V14.01,2013-03-25 01:13:00,
2013-03-24 18:18:00,68.2,46.0,29.38,WNW,292,2.0,2.0,45,0.00,,FEW250,0.00,VWS V14.01,2013-03-25 01:18:00,
2013-03-24 18:23:00,67.6,46.7,29.38,West,270,1.3,1.3,47,0.00,,FEW250,0.00,VWS V14.01,2013-03-25 01:23:00,
2013-03-24 18:28:00,67.1,46.8,29.38,NNW,338,0.0,0.0,48,0.00,,FEW250,0.00,VWS V14.01,2013-03-25 01:28:00,
2013-03-24 18:33:00,66.4,46.1,29.38,WNW,292,2.7,2.7,48,0.00,,FEW250,0.00,VWS V14.01,2013-03-25 01:33:00,
2013-03-24 18:38:00,65.8,46.7,29.38,WSW,248,1.3,1.3,50,0.00,,FEW250,0.00,VWS V14.01,2013-03-25 01:38:00,
2013-03-24 18:43:00,65.1,46.6,29.38,West,270,1.1,1.1,51,0.00,,FEW250,0.00,VWS V14.01,2013-03-25 01:43:00,
2013-03-24 18:48:00,64.8,46.7,29.35,WSW,248,0.0,0.0,52,0.00,,FEW250,0.00,VWS V14.01,2013-03-25 01:48:00,
2013-03-24 18:53:00,64.0,46.6,29.35,West,270,0.0,0.0,53,0.00,,FEW250,0.00,VWS V14.01,2013-03-25 01:53:00,
2013-03-24 18:58:00,63.5,46.6,29.35,West,270,0.0,0.0,54,0.00,,FEW250,0.00,VWS V14.01,2013-03-25 01:58:00,
2013-03-24 19:03:00,63.0,47.0,29.38,West,270,0.0,0.0,56,0.00,,FEW250,0.00,VWS V14.01,2013-03-25 02:03:00,
2013-03-24 19:08:00,62.2,47.3,29.38,WSW,248,1.6,1.6,58,0.00,,FEW250,0.00,VWS V14.01,2013-03-25 02:08:00,
2013-03-24 19:13:00,61.7,47.7,29.38,West,270,0.0,0.0,60,0.00,,FEW250,0.00,VWS V14.01,2013-03-25 02:13:00,
2013-03-24 19:18:00,61.2,47.6,29.38,West,270,1.3,1.3,61,0.00,,FEW250,0.00,VWS V14.01,2013-03-25 02:18:00,
2013-03-24 19:23:00,60.8,48.1,29.38,WSW,248,0.0,0.0,63,0.00,,FEW250,0.00,VWS V14.01,2013-03-25 02:23:00,
2013-03-24 19:28:00,60.4,47.8,29.38,WSW,248,0.9,0.9,63,0.00,,FEW250,0.00,VWS V14.01,2013-03-25 02:28:00,
2013-03-24 19:33:00,60.1,48.3,29.38,WSW,248,0.0,0.0,65,0.00,,FEW250,0.00,VWS V14.01,2013-03-25 02:33:00,
2013-03-24 19:38:00,59.9,48.1,29.38,WSW,248,0.0,0.0,65,0.00,,FEW250,0.00,VWS V14.01,2013-03-25 02:38:00,
2013-03-24 19:43:00,59.5,47.8,29.38,SSW,202,0.0,0.0,65,0.00,,FEW250,0.00,VWS V14.01,2013-03-25 02:43:00,
2013-03-24 19:48:00,59.4,48.0,29.38,WSW,248,0.0,0.0,66,0.00,,FEW250,0.00,VWS V14.01,2013-03-25 02:48:00,
2013-03-24 19:53:00,59.2,47.8,29.38,SSW,202,0.0,0.0,66,0.00,,FEW250,0.00,VWS V14.01,2013-03-25 02:53:00,
2013-03-24 19:58:00,59.0,47.7,29.38,SW,225,0.0,0.0,66,0.00,,FEW250,0.00,VWS V14.01,2013-03-25 02:58:00,
2013-03-24 20:03:00,58.8,48.3,29.38,SSE,158,0.0,0.0,68,0.00,,CLR,0.00,VWS V14.01,2013-03-25 03:03:00,
2013-03-24 20:08:00,58.6,47.7,29.38,SSE,158,0.0,0.0,67,0.00,,CLR,0.00,VWS V14.01,2013-03-25 03:08:00,
2013-03-24 20:13:00,58.6,47.7,29.38,ESE,112,0.0,0.0,67,0.00,,CLR,0.00,VWS V14.01,2013-03-25 03:13:00,
2013-03-24 20:18:00,58.6,47.7,29.38,ESE,112,0.0,0.0,67,0.00,,CLR,0.00,VWS V14.01,2013-03-25 03:18:00,
2013-03-24 20:23:00,58.6,47.3,29.38,SE,135,0.0,0.0,66,0.00,,CLR,0.00,VWS V14.01,2013-03-25 03:23:00,
2013-03-24 20:28:00,58.8,48.3,29.38,SSE,158,1.6,1.6,68,0.00,,CLR,0.00,VWS V14.01,2013-03-25 03:28:00,
2013-03-24 20:33:00,58.8,49.1,29.41,SSE,158,0.0,0.0,70,0.00,,CLR,0.00,VWS V14.01,2013-03-25 03:33:00,
2013-03-24 20:38:00,58.6,49.3,29.41,SSE,158,0.9,0.9,71,0.00,,CLR,0.00,VWS V14.01,2013-03-25 03:38:00,
2013-03-24 20:43:00,58.5,49.1,29.41,SE,135,0.0,0.0,71,0.00,,CLR,0.00,VWS V14.01,2013-03-25 03:43:00,
2013-03-24 20:48:00,58.5,49.5,29.44,SE,135,0.0,0.0,72,0.00,,CLR,0.00,VWS V14.01,2013-03-25 03:48:00,
2013-03-24 20:53:00,58.3,49.3,29.44,East,90,0.0,0.0,72,0.00,,CLR,0.00,VWS V14.01,2013-03-25 03:53:00,
2013-03-24 20:59:00,58.1,49.1,29.44,SSE,158,0.0,0.0,72,0.00,,CLR,0.00,VWS V14.01,2013-03-25 03:59:00,
2013-03-24 21:00:00,58.1,49.1,29.44,SSE,158,0.0,0.0,72,0.00,,,0.00,VWS V14.01,2013-03-25 04:00:00,
2013-03-24 21:05:00,57.9,49.3,29.44,ESE,112,0.0,0.0,73,0.00,,,0.00,VWS V14.01,2013-03-25 04:05:00,
2013-03-24 21:10:00,57.7,49.2,29.44,ESE,112,0.0,0.0,73,0.00,,,0.00,VWS V14.01,2013-03-25 04:10:00,
2013-03-24 21:15:00,57.6,50.1,29.44,SSW,202,0.0,0.0,76,0.00,,,0.00,VWS V14.01,2013-03-25 04:15:00,
2013-03-24 21:20:00,57.4,50.2,29.44,SE,135,0.9,0.9,77,0.00,,,0.00,VWS V14.01,2013-03-25 04:20:00,
2013-03-24 21:25:00,57.2,50.1,29.44,South,180,0.0,0.0,77,0.00,,,0.00,VWS V14.01,2013-03-25 04:25:00,
2013-03-24 21:30:00,57.0,49.9,29.44,ENE,68,1.1,1.1,77,0.00,,,0.00,VWS V14.01,2013-03-25 04:30:00,
2013-03-24 21:35:00,56.8,50.4,29.44,ESE,112,0.0,0.0,79,0.00,,,0.00,VWS V14.01,2013-03-25 04:35:00,
2013-03-24 21:40:00,56.7,50.6,29.44,ESE,112,0.0,0.0,80,0.00,,,0.00,VWS V14.01,2013-03-25 04:40:00,
2013-03-24 21:45:00,56.5,50.7,29.44,SE,135,0.9,0.9,81,0.00,,,0.00,VWS V14.01,2013-03-25 04:45:00,
2013-03-24 21:50:00,56.3,50.9,29.44,SSE,158,2.5,2.5,82,0.00,,,0.00,VWS V14.01,2013-03-25 04:50:00,
2013-03-24 21:55:00,56.1,50.7,29.44,South,180,0.0,0.0,82,0.00,,,0.00,VWS V14.01,2013-03-25 04:55:00,
2013-03-24 22:00:00,55.9,50.9,29.44,SSE,158,0.0,0.0,83,0.00,,,0.00,VWS V14.01,2013-03-25 05:00:00,
2013-03-24 22:05:00,55.8,50.7,29.44,South,180,0.0,0.0,83,0.00,,,0.00,VWS V14.01,2013-03-25 05:05:00,
2013-03-24 22:10:00,55.8,51.0,29.44,South,180,0.0,0.0,84,0.00,,,0.00,VWS V14.01,2013-03-25 05:10:00,
2013-03-24 22:15:00,55.8,51.3,29.44,South,180,0.0,0.0,85,0.00,,,0.00,VWS V14.01,2013-03-25 05:15:00,
2013-03-24 22:20:00,55.6,51.5,29.44,SSE,158,0.0,0.0,86,0.00,,,0.00,VWS V14.01,2013-03-25 05:20:00,
2013-03-24 22:25:00,55.4,51.3,29.44,South,180,0.0,0.0,86,0.00,,,0.00,VWS V14.01,2013-03-25 05:25:00,
2013-03-24 22:30:00,55.4,51.6,29.44,SSW,202,0.0,0.0,87,0.00,,,0.00,VWS V14.01,2013-03-25 05:30:00,
2013-03-24 22:35:00,55.4,51.9,29.44,South,180,0.0,0.0,88,0.00,,,0.00,VWS V14.01,2013-03-25 05:35:00,
2013-03-24 22:40:00,55.2,52.0,29.44,ESE,112,0.0,0.0,89,0.00,,,0.00,VWS V14.01,2013-03-25 05:40:00,
2013-03-24 22:45:00,55.2,52.0,29.44,South,180,0.0,0.0,89,0.00,,,0.00,VWS V14.01,2013-03-25 05:45:00,
2013-03-24 22:50:00,55.2,52.0,29.44,SW,225,0.0,0.0,89,0.00,,,0.00,VWS V14.01,2013-03-25 05:50:00,
2013-03-24 22:55:00,55.0,52.2,29.44,SSW,202,0.0,0.0,90,0.00,,,0.00,VWS V14.01,2013-03-25 05:55:00,
2013-03-24 23:00:00,55.0,52.2,29.44,SE,135,0.0,0.0,90,0.00,,,0.00,VWS V14.01,2013-03-25 06:00:00,
2013-03-24 23:05:00,54.9,52.3,29.44,SE,135,0.0,0.0,91,0.00,,,0.00,VWS V14.01,2013-03-25 06:05:00,
2013-03-24 23:10:00,54.7,52.1,29.44,SE,135,0.0,0.0,91,0.00,,,0.00,VWS V14.01,2013-03-25 06:10:00,
2013-03-24 23:15:00,54.7,52.1,29.44,SSE,158,0.0,0.0,91,0.00,,,0.00,VWS V14.01,2013-03-25 06:15:00,
2013-03-24 23:20:00,54.7,52.1,29.44,South,180,0.0,0.0,91,0.00,,,0.00,VWS V14.01,2013-03-25 06:20:00,
2013-03-24 23:25:00,54.9,52.3,29.44,South,180,0.0,0.0,91,0.00,,,0.00,VWS V14.01,2013-03-25 06:25:00,
2013-03-24 23:31:00,54.7,52.1,29.44,SSE,158,0.0,0.0,91,0.00,,,0.00,VWS V14.01,2013-03-25 06:31:00,
2013-03-24 23:36:00,54.5,52.2,29.44,SSW,202,0.0,0.0,92,0.00,,,0.00,VWS V14.01,2013-03-25 06:36:00,
2013-03-24 23:41:00,54.5,52.2,29.44,SSE,158,0.0,0.0,92,0.00,,,0.00,VWS V14.01,2013-03-25 06:41:00,
2013-03-24 23:46:00,54.5,52.2,29.44,SSE,158,0.0,0.0,92,0.00,,,0.00,VWS V14.01,2013-03-25 06:46:00,
2013-03-24 23:51:00,54.3,52.0,29.44,SSE,158,0.0,0.0,92,0.00,,,0.00,VWS V14.01,2013-03-25 06:51:00,
2013-03-24 23:56:00,54.3,52.0,29.44,SSE,158,0.0,0.0,92,0.00,,,0.00,VWS V14.01,2013-03-25 06:56:00,